Time;durP1;ratioP1;P1;durP2;ratioP2;P2;SDS_P1;SDS_P2;PMS_P1;PMS_P2;Temp;Humidity;BMP_temperature;BMP_pressure;BME280_temperature;BME280_humidity;BME280_pressure;Samples;Min_cycle;Max_cycle;Signal;HPM_P1;HPM_P2
2022/01/31 00:00:17;;;;;;;39.75;8.07;;;;;;;3.83;69.83;98926.78;4951803;28;20046;-81
2022/01/31 00:02:44;;;;;;;35.35;9.15;;;;;;;3.86;70.30;98913.19;4955668;28;20046;-81
2022/01/31 00:05:10;;;;;;;25.85;7.32;;;;;;;3.85;69.87;98903.63;4965677;28;20054;-80
2022/01/31 00:07:36;;;;;;;28.33;8.23;;;;;;;3.87;69.73;98904.25;4967970;28;20030;-80
2022/01/31 00:10:06;;;;;;;25.73;6.57;;;;;;;3.80;69.56;98901.59;4966264;28;20031;-81
2022/01/31 00:12:38;;;;;;;31.50;8.05;;;;;;;3.86;69.72;98896.53;4950631;28;20026;-80
2022/01/31 00:15:04;;;;;;;32.33;7.90;;;;;;;3.84;69.51;98877.44;4963998;28;20048;-81
2022/01/31 00:17:30;;;;;;;28.40;7.65;;;;;;;3.77;69.53;98856.34;4983691;28;20031;-80
2022/01/31 00:19:55;;;;;;;32.63;9.13;;;;;;;3.82;69.41;98869.75;4977582;28;20035;-78
2022/01/31 00:22:21;;;;;;;27.15;7.95;;;;;;;3.82;69.26;98855.72;4955369;28;20035;-79
2022/01/31 00:24:46;;;;;;;36.17;7.53;;;;;;;3.78;69.00;98839.47;4972392;28;20019;-78
2022/01/31 00:27:11;;;;;;;43.00;9.57;;;;;;;3.73;69.09;98828.72;4973534;28;20027;-79
2022/01/31 00:29:37;;;;;;;36.25;8.40;;;;;;;3.64;69.24;98809.66;4951709;28;20031;-79
2022/01/31 00:32:03;;;;;;;21.58;6.78;;;;;;;3.72;69.51;98822.63;4948950;28;20062;-80
2022/01/31 00:34:28;;;;;;;38.47;10.13;;;;;;;3.70;69.31;98816.75;4967591;28;20091;-79
2022/01/31 00:36:54;;;;;;;25.48;7.55;;;;;;;3.72;68.94;98804.16;4974773;28;20784;-78
2022/01/31 00:39:20;;;;;;;32.97;7.50;;;;;;;3.69;69.50;98807.19;4975177;28;20046;-78
2022/01/31 00:41:45;;;;;;;30.95;9.27;;;;;;;3.53;69.18;98780.44;4973224;28;20500;-79
2022/01/31 00:44:17;;;;;;;38.55;8.40;;;;;;;3.72;69.41;98796.25;4975132;28;20034;-78
2022/01/31 00:46:50;;;;;;;34.67;9.90;;;;;;;3.68;68.86;98773.09;4967592;28;20424;-78
2022/01/31 00:51:55;;;;;;;26.60;7.20;;;;;;;3.65;69.92;98750.56;4968665;28;20035;-79
2022/01/31 00:54:21;;;;;;;40.30;8.20;;;;;;;3.64;70.05;98738.41;4979765;28;20038;-79
2022/01/31 00:56:47;;;;;;;26.20;8.18;;;;;;;3.66;70.15;98732.91;4948197;28;20039;-78
2022/01/31 00:59:12;;;;;;;36.05;9.00;;;;;;;3.57;69.55;98718.31;4974040;28;20031;-79
2022/01/31 01:01:38;;;;;;;27.70;7.10;;;;;;;3.51;69.60;98727.88;4948751;28;20035;-79
2022/01/31 01:04:03;;;;;;;34.85;8.30;;;;;;;3.53;69.94;98725.03;4967655;28;20046;-79
2022/01/31 01:06:28;;;;;;;27.83;6.78;;;;;;;3.50;70.46;98723.63;4953329;28;20038;-80
2022/01/31 01:08:54;;;;;;;34.25;8.48;;;;;;;3.61;70.27;98732.72;4971600;28;20035;-80
2022/01/31 01:11:19;;;;;;;38.20;8.23;;;;;;;3.63;69.93;98705.09;4948301;28;20027;-79
2022/01/31 01:13:44;;;;;;;32.40;7.18;;;;;;;3.63;70.05;98670.00;4967771;28;20043;-79
2022/01/31 01:16:09;;;;;;;22.38;7.53;;;;;;;3.55;70.10;98657.84;4966732;28;20022;-79
2022/01/31 01:18:35;;;;;;;28.70;9.27;;;;;;;3.55;70.11;98654.41;4952285;28;20130;-80
2022/01/31 01:21:00;;;;;;;24.08;7.15;;;;;;;3.61;70.37;98666.75;4972084;28;20038;-79
2022/01/31 01:23:25;;;;;;;22.95;8.15;;;;;;;3.59;70.33;98653.78;4965413;28;20031;-79
2022/01/31 01:25:51;;;;;;;31.73;8.38;;;;;;;3.52;70.40;98617.88;4965951;28;20046;-80
2022/01/31 01:28:17;;;;;;;36.63;7.45;;;;;;;3.60;70.54;98615.78;4952962;28;20074;-79
2022/01/31 01:30:42;;;;;;;28.05;7.05;;;;;;;3.53;70.60;98588.66;4974923;28;20444;-79
2022/01/31 01:33:17;;;;;;;26.05;6.93;;;;;;;3.51;70.73;98566.94;4946596;28;20030;-79
2022/01/31 01:35:42;;;;;;;27.85;7.43;;;;;;;3.64;70.59;98577.44;4964363;28;20031;-79
2022/01/31 01:38:08;;;;;;;18.33;7.05;;;;;;;3.56;71.40;98546.00;4944602;28;20027;-79
2022/01/31 01:40:39;;;;;;;31.20;8.48;;;;;;;3.64;70.87;98568.72;4940968;28;20126;-79
2022/01/31 01:43:06;;;;;;;26.60;8.07;;;;;;;3.64;71.04;98574.00;4943075;28;20035;-81
2022/01/31 01:45:32;;;;;;;20.70;6.95;;;;;;;3.68;71.02;98577.81;4963469;28;20030;-81
2022/01/31 01:47:58;;;;;;;25.00;6.40;;;;;;;3.68;70.97;98551.44;4961410;28;20046;-79
2022/01/31 01:50:24;;;;;;;29.05;8.32;;;;;;;3.63;70.93;98533.59;4963002;28;20039;-78
2022/01/31 01:52:51;;;;;;;29.83;6.63;;;;;;;3.65;71.08;98542.09;4965611;28;20047;-79
2022/01/31 01:55:17;;;;;;;20.23;7.47;;;;;;;3.68;71.17;98522.41;4956670;28;20050;-80
2022/01/31 01:57:42;;;;;;;30.35;8.27;;;;;;;3.66;71.49;98498.06;4959615;28;20038;-79
2022/01/31 02:00:15;;;;;;;21.27;7.95;;;;;;;3.65;71.20;98506.97;4960119;28;20484;-78
2022/01/31 02:02:41;;;;;;;32.72;7.70;;;;;;;3.65;71.05;98477.94;4966289;28;20031;-79
2022/01/31 02:05:07;;;;;;;26.23;7.47;;;;;;;3.57;71.37;98457.09;4938134;28;20432;-78
2022/01/31 02:07:34;;;;;;;28.67;8.27;;;;;;;3.66;71.49;98451.38;4939591;28;20038;-79
2022/01/31 02:10:04;;;;;;;28.35;7.30;;;;;;;3.65;71.31;98462.13;4971295;28;20041;-79
2022/01/31 02:12:40;;;;;;;26.98;7.72;;;;;;;3.59;71.01;98441.88;4967451;28;20079;-78
2022/01/31 02:15:08;;;;;;;33.67;8.13;;;;;;;3.66;71.42;98445.28;4970419;28;20027;-80
2022/01/31 02:17:34;;;;;;;20.88;7.13;;;;;;;3.61;71.87;98424.00;4949846;28;20031;-79
2022/01/31 02:19:59;;;;;;;23.58;7.75;;;;;;;3.63;71.68;98419.31;4946204;28;20055;-80
2022/01/31 02:22:24;;;;;;;21.60;6.88;;;;;;;3.61;71.71;98414.25;4962736;28;20031;-80
2022/01/31 02:24:49;;;;;;;19.17;8.20;;;;;;;3.57;71.74;98404.34;4955503;28;20051;-79
2022/01/31 02:27:22;;;;;;;25.45;7.38;;;;;;;3.54;71.78;98396.84;4964723;28;20077;-79
2022/01/31 02:29:47;;;;;;;20.42;7.13;;;;;;;3.57;71.46;98399.88;4964061;28;20030;-79
2022/01/31 02:32:13;;;;;;;22.40;7.47;;;;;;;3.59;71.95;98384.66;4935843;28;20039;-79
2022/01/31 02:34:38;;;;;;;20.73;6.68;;;;;;;3.58;71.79;98377.72;4963697;28;20031;-78
2022/01/31 02:37:03;;;;;;;25.73;7.75;;;;;;;3.59;71.87;98368.81;4963999;28;20030;-78
2022/01/31 02:39:29;;;;;;;33.78;7.53;;;;;;;3.57;71.82;98360.31;4942838;28;20057;-78
2022/01/31 02:41:54;;;;;;;14.77;5.88;;;;;;;3.54;71.66;98342.25;4964343;28;20055;-77
2022/01/31 02:44:19;;;;;;;27.13;7.20;;;;;;;3.54;71.94;98325.63;4962265;28;20035;-78
2022/01/31 02:46:54;;;;;;;19.02;6.10;;;;;;;3.52;71.90;98319.75;4945824;28;20031;-79
2022/01/31 02:49:23;;;;;;;24.30;8.20;;;;;;;3.49;72.00;98331.56;4971957;28;20068;-79
2022/01/31 02:51:59;;;;;;;18.13;7.25;;;;;;;3.43;72.00;98323.69;4964797;28;20023;-79
2022/01/31 02:54:25;;;;;;;23.27;8.55;;;;;;;3.47;71.78;98328.31;4959989;28;20135;-81
2022/01/31 02:56:51;;;;;;;31.40;7.63;;;;;;;3.48;71.94;98329.94;4945584;28;20037;-79
2022/01/31 02:59:16;;;;;;;17.20;6.95;;;;;;;3.45;72.31;98313.75;4967349;28;20403;-81
2022/01/31 03:01:42;;;;;;;25.58;6.80;;;;;;;3.38;71.98;98281.34;4960982;28;20023;-80
2022/01/31 03:04:07;;;;;;;25.90;6.32;;;;;;;3.36;72.28;98262.28;4957541;28;20035;-79
2022/01/31 03:06:33;;;;;;;33.17;8.05;;;;;;;3.49;71.78;98254.25;4957480;28;20050;-78
2022/01/31 03:08:58;;;;;;;23.70;8.13;;;;;;;3.47;72.37;98238.63;4962266;28;20044;-79
2022/01/31 03:11:24;;;;;;;16.33;5.55;;;;;;;3.48;71.98;98237.59;4960775;28;20031;-79
2022/01/31 03:13:49;;;;;;;21.80;5.63;;;;;;;3.46;71.99;98231.75;4966899;28;20031;-79
2022/01/31 03:16:14;;;;;;;24.85;7.78;;;;;;;3.46;71.90;98220.38;4934035;28;20117;-79
2022/01/31 03:18:39;;;;;;;20.05;6.30;;;;;;;3.46;72.11;98207.19;4962884;28;20106;-79
2022/01/31 03:21:05;;;;;;;17.52;5.78;;;;;;;3.40;71.81;98192.25;4940215;28;20043;-79
2022/01/31 03:23:30;;;;;;;16.80;5.97;;;;;;;3.45;71.82;98202.97;4973185;28;20046;-79
2022/01/31 03:29:47;;;;;;;15.38;6.13;;;;;;;3.41;71.66;98188.56;4912614;29;20536;-78
2022/01/31 03:33:38;;;;;;;17.48;6.47;;;;;;;3.39;71.67;98167.69;4896024;29;20703;-79
2022/01/31 03:40:42;;;;;;;17.52;4.82;;;;;;;3.33;72.01;98112.38;4823534;29;20068;-78
2022/01/31 03:51:17;;;;;;;20.15;5.15;;;;;;;3.25;71.97;98081.84;4700683;30;20455;-78
2022/01/31 03:54:40;;;;;;;12.10;5.07;;;;;;;3.24;72.35;98068.88;4737603;30;20043;-78
2022/01/31 04:02:07;;;;;;;17.02;6.05;;;;;;;2.96;71.79;97993.78;4739439;30;20046;-78
2022/01/31 04:22:53;;;;;;;17.38;5.80;;;;;;;3.24;71.60;97963.41;4737308;30;20079;-79
2022/01/31 04:40:37;;;;;;;9.90;4.45;;;;;;;3.16;73.65;97893.34;4806032;29;20038;-79
2022/01/31 04:44:16;;;;;;;15.48;5.65;;;;;;;3.16;73.74;97880.19;4797591;29;20042;-79
2022/01/31 04:48:00;;;;;;;12.38;4.88;;;;;;;3.13;73.99;97872.69;4802482;29;20737;-78
2022/01/31 04:54:51;;;;;;;17.70;4.97;;;;;;;2.86;74.35;97814.28;4733915;30;20105;-78
2022/01/31 05:02:03;;;;;;;13.85;4.55;;;;;;;3.04;75.30;97831.88;4706109;30;20071;-78
2022/01/31 05:05:32;;;;;;;20.67;4.63;;;;;;;2.99;75.27;97827.28;4734080;30;20041;-78
2022/01/31 05:12:39;;;;;;;12.40;4.05;;;;;;;2.92;76.23;97794.97;4785945;30;20104;-78
2022/01/31 05:15:56;;;;;;;20.17;5.10;;;;;;;2.90;76.10;97790.94;4804000;29;20057;-78
2022/01/31 05:19:06;;;;;;;;;;;;;;;2.90;76.44;97789.13;4840546;29;20494;-78
2022/01/31 05:30:04;;;;;;;13.70;5.45;;;;;;;2.70;76.69;97716.66;4888332;29;20536;-78
2022/01/31 05:39:51;;;;;;;9.75;4.40;;;;;;;2.88;76.77;97717.38;4935027;29;20038;-78
2022/01/31 05:57:09;;;;;;;6.93;3.80;;;;;;;2.80;77.28;97677.38;4847603;29;20097;-78
2022/01/31 06:00:39;;;;;;;9.43;3.75;;;;;;;2.78;77.84;97672.34;4854523;29;20026;-78
2022/01/31 06:07:40;;;;;;;5.78;2.90;;;;;;;2.76;77.46;97665.69;4794817;29;20062;-79
2022/01/31 06:21:13;;;;;;;6.03;3.13;;;;;;;2.73;77.91;97635.34;4783060;29;20444;-79
2022/01/31 06:38:46;;;;;;;3.92;2.13;;;;;;;2.71;78.49;97610.28;4646776;30;20053;-79
2022/01/31 07:02:36;;;;;;;4.50;2.92;;;;;;;2.59;79.31;97576.03;4715003;30;20078;-79
2022/01/31 07:06:08;;;;;;;2.80;2.58;;;;;;;2.52;78.90;97558.72;4770793;29;20047;-79
2022/01/31 07:33:28;;;;;;;3.90;3.28;;;;;;;2.73;79.98;97561.56;4970941;28;20054;-80
2022/01/31 07:35:54;;;;;;;3.55;3.25;;;;;;;2.74;80.04;97562.38;4938941;28;20031;-80
2022/01/31 07:38:19;;;;;;;4.50;4.00;;;;;;;2.78;79.82;97553.78;4957933;28;20088;-80
2022/01/31 07:40:45;;;;;;;6.80;3.42;;;;;;;2.68;79.47;97540.41;4942474;28;20802;-79
2022/01/31 07:43:10;;;;;;;4.20;3.30;;;;;;;2.68;79.93;97539.59;4969588;28;20034;-80
2022/01/31 07:45:36;;;;;;;3.10;2.80;;;;;;;2.65;79.75;97526.88;4963216;28;20034;-79
2022/01/31 07:48:01;;;;;;;5.35;3.40;;;;;;;2.76;80.22;97545.31;4950689;29;20423;-79
2022/01/31 07:50:30;;;;;;;5.15;2.92;;;;;;;2.83;79.87;97547.84;4959022;28;20078;-81
2022/01/31 07:52:55;;;;;;;4.35;3.08;;;;;;;2.79;79.53;97550.13;4952444;28;20054;-82
2022/01/31 07:55:21;;;;;;;5.18;2.95;;;;;;;2.83;79.92;97542.56;4940585;29;20027;-80
2022/01/31 07:57:47;;;;;;;6.30;2.92;;;;;;;2.81;79.86;97537.53;4956736;29;20035;-81
2022/01/31 08:00:14;;;;;;;4.65;2.90;;;;;;;2.83;79.71;97530.19;4958883;28;20034;-79
2022/01/31 08:02:40;;;;;;;5.55;3.30;;;;;;;2.78;80.27;97524.00;4954126;29;20400;-80
2022/01/31 08:05:07;;;;;;;6.60;3.63;;;;;;;2.90;80.06;97543.25;4967583;28;20093;-80
2022/01/31 08:07:32;;;;;;;4.65;3.53;;;;;;;2.85;79.87;97530.78;4967027;28;20043;-81
2022/01/31 08:10:00;;;;;;;5.03;3.70;;;;;;;2.85;79.30;97520.22;4963026;29;20031;-80
2022/01/31 08:12:26;;;;;;;11.55;4.03;;;;;;;2.91;80.15;97523.75;4960860;28;20388;-80
2022/01/31 08:14:51;;;;;;;8.65;4.07;;;;;;;2.88;80.17;97511.06;4947623;29;20050;-80
2022/01/31 08:17:17;;;;;;;5.05;3.72;;;;;;;2.91;79.93;97526.41;4947161;28;20027;-80
2022/01/31 08:19:42;;;;;;;10.65;3.88;;;;;;;2.91;79.72;97524.56;4964492;28;20841;-80
2022/01/31 08:22:07;;;;;;;6.72;4.25;;;;;;;2.81;80.26;97508.56;4945392;29;20046;-79
2022/01/31 08:24:33;;;;;;;7.35;4.38;;;;;;;2.93;80.12;97513.78;4939045;29;20035;-79
2022/01/31 08:26:58;;;;;;;7.57;4.32;;;;;;;2.97;80.38;97505.19;4964908;28;20035;-80
2022/01/31 08:29:31;;;;;;;10.50;4.88;;;;;;;3.02;80.29;97505.28;4963670;28;20089;-79
2022/01/31 08:31:58;;;;;;;9.25;4.57;;;;;;;2.95;80.40;97499.34;4966119;28;20035;-80
2022/01/31 08:37:07;;;;;;;6.10;4.63;;;;;;;3.00;80.57;97517.91;4962765;28;20053;-81
2022/01/31 08:39:32;;;;;;;6.95;4.55;;;;;;;3.04;80.76;97511.13;4943760;29;20043;-79
2022/01/31 08:41:58;;;;;;;8.15;5.05;;;;;;;3.05;80.57;97506.66;4930608;29;20058;-80
2022/01/31 08:44:24;;;;;;;5.85;4.13;;;;;;;3.11;80.42;97507.56;4944927;28;20039;-79
2022/01/31 08:46:51;;;;;;;9.35;4.30;;;;;;;3.12;80.44;97499.44;4952034;29;20524;-80
2022/01/31 08:49:16;;;;;;;5.47;4.60;;;;;;;3.20;80.48;97508.78;4964041;29;20034;-79
2022/01/31 08:51:44;;;;;;;5.03;3.90;;;;;;;3.21;80.24;97500.63;4947462;29;20024;-80
2022/01/31 08:54:11;;;;;;;7.25;4.63;;;;;;;3.22;80.38;97502.25;4944622;29;20090;-81
2022/01/31 08:56:44;;;;;;;7.18;3.78;;;;;;;3.25;80.45;97501.00;4943657;29;20035;-78
2022/01/31 08:59:33;;;;;;;8.05;4.15;;;;;;;3.29;80.00;97500.28;4935271;29;20058;-80
2022/01/31 09:02:06;;;;;;;9.07;4.35;;;;;;;3.36;80.53;97503.59;4940031;29;20129;-79
2022/01/31 09:04:34;;;;;;;4.93;3.88;;;;;;;3.39;80.56;97508.38;4959778;28;20034;-79
2022/01/31 09:07:02;;;;;;;7.30;4.15;;;;;;;3.40;80.46;97509.19;4962171;28;20054;-80
2022/01/31 09:09:28;;;;;;;5.43;4.40;;;;;;;3.44;80.31;97505.84;4960053;29;20054;-79
2022/01/31 09:11:57;;;;;;;8.32;4.30;;;;;;;3.43;80.29;97495.53;4967329;28;20058;-79
2022/01/31 09:14:22;;;;;;;8.13;4.28;;;;;;;3.48;80.27;97493.78;4948867;28;20066;-79
2022/01/31 09:16:47;;;;;;;5.20;3.85;;;;;;;3.52;80.01;97502.00;4941902;29;20495;-81
2022/01/31 09:19:13;;;;;;;8.27;4.30;;;;;;;3.58;80.06;97503.72;4947196;29;20137;-80
2022/01/31 09:21:38;;;;;;;4.75;3.88;;;;;;;3.59;80.12;97494.75;4959092;28;20038;-79
2022/01/31 09:24:03;;;;;;;6.72;3.80;;;;;;;3.59;80.26;97502.69;4959410;28;20130;-79
2022/01/31 09:26:29;;;;;;;5.60;3.65;;;;;;;3.61;79.98;97503.25;4958336;28;20121;-79
2022/01/31 09:28:54;;;;;;;6.32;3.75;;;;;;;3.53;79.81;97487.81;4947692;28;20035;-79
2022/01/31 09:31:21;;;;;;;5.18;3.15;;;;;;;3.64;79.65;97498.31;4957250;29;20027;-79
2022/01/31 09:33:47;;;;;;;8.55;4.45;;;;;;;3.58;79.66;97486.03;4941178;29;20035;-78
2022/01/31 09:36:13;;;;;;;5.28;3.55;;;;;;;3.65;79.56;97497.25;4929593;28;20240;-78
2022/01/31 09:38:40;;;;;;;4.50;3.30;;;;;;;3.54;79.90;97465.66;4963034;28;21215;-78
2022/01/31 09:41:08;;;;;;;6.15;3.53;;;;;;;3.63;79.75;97477.41;4960079;28;20086;-80
2022/01/31 09:48:35;;;;;;;3.60;2.83;;;;;;;3.83;80.26;97484.88;4955487;28;20039;-79
2022/01/31 09:51:18;;;;;;;4.15;3.58;;;;;;;3.83;79.37;97483.03;4949886;29;20476;-79
2022/01/31 09:53:50;;;;;;;5.53;3.63;;;;;;;3.84;79.82;97489.94;4937247;29;20031;-79
2022/01/31 09:56:21;;;;;;;4.90;3.40;;;;;;;3.87;79.24;97488.66;4960829;28;20046;-80
2022/01/31 09:59:10;;;;;;;3.08;2.78;;;;;;;3.84;79.67;97473.31;4942079;29;20041;-80
2022/01/31 10:01:47;;;;;;;4.10;3.30;;;;;;;3.90;79.03;97475.78;4940346;29;20122;-82
2022/01/31 10:04:31;;;;;;;;;;;;;;;;;;;;;
2022/01/31 10:10:47;;;;;;;4.32;2.70;;;;;;;3.32;78.98;97367.19;4976164;28;20404;-82
2022/01/31 10:19:06;;;;;;;3.38;2.25;;;;;;;3.92;79.57;97468.44;4979247;28;20101;-89
2022/01/31 10:21:54;;;;;;;2.28;2.17;;;;;;;3.61;79.46;97419.63;4943853;28;20030;-89
2022/01/31 10:24:20;;;;;;;4.82;2.80;;;;;;;3.76;79.55;97430.44;4943526;29;20472;-89
2022/01/31 10:26:48;;;;;;;2.35;2.15;;;;;;;3.35;79.31;97361.44;4949395;28;20110;-89
2022/01/31 10:29:16;;;;;;;2.22;2.13;;;;;;;3.38;80.04;97369.69;4954167;28;20037;-89
2022/01/31 10:31:58;;;;;;;2.92;2.72;;;;;;;3.95;80.04;97454.75;4968325;28;20051;-88
2022/01/31 10:34:25;;;;;;;2.53;2.20;;;;;;;3.49;79.62;97381.19;4949557;28;20031;-88
2022/01/31 10:37:06;;;;;;;2.75;2.55;;;;;;;3.64;79.54;97415.72;4948208;28;20521;-89
2022/01/31 10:45:40;;;;;;;2.50;2.30;;;;;;;4.04;79.38;97471.78;4942263;29;20046;-87
2022/01/31 10:53:42;;;;;;;2.75;2.22;;;;;;;4.03;79.63;97467.53;4920661;29;20036;-87
2022/01/31 10:56:08;;;;;;;2.25;2.08;;;;;;;3.83;79.71;97421.53;4919523;29;20042;-88
2022/01/31 10:58:33;;;;;;;2.30;2.10;;;;;;;4.09;79.54;97473.69;4903851;29;20036;-88
2022/01/31 11:01:30;;;;;;;2.85;2.65;;;;;;;4.15;79.80;97478.81;4919129;29;20051;-87
2022/01/31 11:04:03;;;;;;;2.30;2.20;;;;;;;3.94;79.66;97455.78;4937484;29;20067;-87
2022/01/31 11:06:29;;;;;;;2.35;2.17;;;;;;;3.87;79.76;97441.94;4918536;29;20096;-88
2022/01/31 11:09:01;;;;;;;3.20;2.70;;;;;;;4.09;80.37;97485.06;4936513;29;20032;-87
2022/01/31 11:11:27;;;;;;;3.80;2.95;;;;;;;3.84;80.55;97437.16;4919553;29;20466;-88
2022/01/31 11:13:54;;;;;;;2.85;2.38;;;;;;;3.89;80.24;97442.50;4919758;29;20047;-87
2022/01/31 11:16:23;;;;;;;3.58;2.42;;;;;;;4.10;80.25;97483.22;4936428;29;20031;-87
2022/01/31 11:18:49;;;;;;;2.60;2.10;;;;;;;4.17;80.37;97481.22;4930980;29;20084;-87
2022/01/31 11:21:15;;;;;;;3.25;2.45;;;;;;;3.86;80.17;97435.06;4919308;29;20055;-87
2022/01/31 11:23:43;;;;;;;2.50;2.30;;;;;;;4.46;80.75;97515.22;4918687;29;20031;-86
2022/01/31 11:26:12;;;;;;;2.60;2.40;;;;;;;4.07;80.31;97444.91;4917381;29;20023;-86
2022/01/31 11:28:40;;;;;;;2.67;2.47;;;;;;;4.51;80.54;97504.72;4924225;29;20379;-86
2022/01/31 11:31:06;;;;;;;2.30;2.20;;;;;;;4.39;80.23;97488.16;4934478;29;20036;-87
2022/01/31 11:33:34;;;;;;;2.80;2.60;;;;;;;4.20;80.07;97457.78;4899990;29;20043;-86
2022/01/31 12:40:05;;;;;;;2.17;1.88;;;;;;;4.74;79.91;97522.19;4933672;29;20057;-87
2022/01/31 12:45:43;;;;;;;2.10;1.90;;;;;;;4.80;80.11;97539.75;4929781;29;20039;-89
2022/01/31 12:48:16;;;;;;;2.42;2.13;;;;;;;4.84;80.07;97545.34;4949288;28;20039;-88
2022/01/31 12:50:59;;;;;;;2.50;2.33;;;;;;;4.52;80.09;97492.31;4949739;29;20024;-88
2022/01/31 12:53:27;;;;;;;3.38;2.22;;;;;;;4.84;79.59;97547.97;4949122;28;20454;-88
2022/01/31 12:56:29;;;;;;;3.55;2.30;;;;;;;4.84;79.41;97556.72;4948246;29;20414;-87
2022/01/31 12:59:03;;;;;;;2.88;2.40;;;;;;;4.90;79.64;97557.56;4904171;29;20541;-88
2022/01/31 13:01:30;;;;;;;4.47;2.20;;;;;;;4.90;79.46;97565.50;4915508;29;20032;-88
2022/01/31 13:04:04;;;;;;;2.33;1.75;;;;;;;4.83;79.64;97565.69;4943254;28;20055;-88
2022/01/31 13:06:46;;;;;;;2.20;2.00;;;;;;;4.89;79.55;97572.63;4902502;29;20122;-89
2022/01/31 13:09:14;;;;;;;4.60;2.60;;;;;;;4.86;79.99;97581.06;4933331;29;20501;-88
2022/01/31 13:11:43;;;;;;;2.35;2.15;;;;;;;4.82;79.42;97573.84;4936381;29;20123;-88
2022/01/31 13:14:14;;;;;;;1.98;1.88;;;;;;;4.75;79.11;97576.69;4931103;29;20059;-87
2022/01/31 13:16:43;;;;;;;2.45;2.17;;;;;;;4.89;79.71;97600.94;4936162;29;20449;-87
2022/01/31 13:19:18;;;;;;;2.30;2.10;;;;;;;4.53;78.98;97558.13;4904297;29;20039;-87
2022/01/31 13:21:44;;;;;;;1.58;1.48;;;;;;;4.84;79.40;97600.84;4909089;29;20036;-88
2022/01/31 13:24:10;;;;;;;1.73;1.63;;;;;;;4.89;79.13;97608.88;4905862;29;20635;-88
2022/01/31 13:26:59;;;;;;;2.08;1.70;;;;;;;4.86;79.74;97619.91;4936479;29;20043;-88
2022/01/31 13:29:39;;;;;;;2.38;1.75;;;;;;;4.79;79.24;97604.22;4937284;29;20031;-88
2022/01/31 13:32:16;;;;;;;1.80;1.70;;;;;;;4.80;79.22;97612.94;4919844;29;20031;-88
2022/01/31 13:34:44;;;;;;;3.13;1.92;;;;;;;4.69;79.44;97612.00;4951621;29;20027;-89
2022/01/31 13:37:28;;;;;;;1.48;1.38;;;;;;;4.75;79.54;97618.16;4934417;29;20028;-89
2022/01/31 13:40:00;;;;;;;1.60;1.52;;;;;;;4.67;78.98;97611.44;4935446;29;20036;-87
2022/01/31 13:42:34;;;;;;;1.80;1.70;;;;;;;4.86;80.01;97648.97;4932668;29;20047;-88
2022/01/31 13:45:01;;;;;;;3.65;1.38;;;;;;;4.86;78.92;97656.91;4937042;29;20061;-88
2022/01/31 13:47:47;;;;;;;1.60;1.52;;;;;;;4.74;79.49;97646.41;4950929;28;20554;-89
2022/01/31 13:50:44;;;;;;;1.60;1.50;;;;;;;4.84;79.59;97669.56;4913181;29;20039;-89
2022/01/31 13:53:10;;;;;;;;;;;;;;;4.86;79.40;97668.28;4931329;29;20273;-87
2022/01/31 13:55:48;;;;;;;1.40;1.30;;;;;;;4.60;79.81;97636.41;4900642;29;20297;-88
2022/01/31 13:58:24;;;;;;;1.10;1.10;;;;;;;4.75;80.29;97666.53;4933573;29;20035;-88
2022/01/31 14:00:50;;;;;;;;;;;;;;;4.83;80.27;97674.06;4902789;29;20495;-88
2022/01/31 14:03:23;;;;;;;1.48;1.38;;;;;;;4.68;79.43;97642.09;4918380;29;19977;-88
2022/01/31 14:05:53;;;;;;;1.40;1.30;;;;;;;4.72;80.13;97653.00;4919193;29;20565;-88
2022/01/31 14:08:24;;;;;;;1.77;1.50;;;;;;;4.76;79.55;97656.78;4935505;29;20089;-87
2022/01/31 14:10:49;;;;;;;1.33;1.27;;;;;;;4.60;79.74;97617.91;4934031;29;20027;-88
2022/01/31 14:13:16;;;;;;;1.17;1.17;;;;;;;4.87;79.84;97669.88;4932544;29;20035;-88
2022/01/31 14:15:46;;;;;;;1.77;1.67;;;;;;;4.87;80.06;97664.59;4920875;29;20031;-87
2022/01/31 14:18:20;;;;;;;1.73;1.42;;;;;;;4.77;79.75;97658.34;4901816;29;20119;-87
2022/01/31 14:20:51;;;;;;;1.30;1.30;;;;;;;4.86;79.98;97678.06;4925762;29;20093;-89
2022/01/31 14:23:17;;;;;;;1.40;1.40;;;;;;;4.90;80.24;97685.28;4922085;29;20042;-88
2022/01/31 14:25:45;;;;;;;1.77;1.67;;;;;;;4.80;80.13;97663.97;4919301;29;20031;-89
2022/01/31 14:28:13;;;;;;;1.52;1.42;;;;;;;4.89;80.26;97675.72;4887628;29;20035;-89
2022/01/31 14:30:52;;;;;;;1.13;1.10;;;;;;;4.81;80.23;97662.13;4917108;29;20115;-89
2022/01/31 14:33:20;;;;;;;1.60;1.50;;;;;;;4.92;80.10;97685.03;4924931;29;20042;-88
2022/01/31 14:35:45;;;;;;;1.40;1.30;;;;;;;4.90;80.50;97679.19;4918459;29;20027;-89
2022/01/31 14:38:19;;;;;;;1.88;1.40;;;;;;;4.96;80.17;97683.50;4918359;29;20027;-88
2022/01/31 16:28:22;;;;;;;3.40;2.20;;;;;;;4.63;79.69;97826.19;4936659;29;20087;-88
2022/01/31 16:30:49;;;;;;;5.57;2.53;;;;;;;4.69;79.90;97846.41;4936591;29;20122;-89
2022/01/31 16:33:16;;;;;;;2.17;1.98;;;;;;;4.30;79.47;97772.19;4938428;29;20112;-88
2022/01/31 16:35:42;;;;;;;3.10;2.15;;;;;;;4.52;80.00;97820.69;4922550;29;20504;-88
2022/01/31 16:38:07;;;;;;;2.78;2.17;;;;;;;4.52;79.64;97819.94;4924976;29;20036;-89
2022/01/31 16:40:33;;;;;;;3.67;2.25;;;;;;;4.48;79.66;97813.47;4918659;29;20079;-89
2022/01/31 16:42:58;;;;;;;5.80;2.28;;;;;;;4.16;79.29;97760.31;4902800;29;20472;-89
2022/01/31 16:45:24;;;;;;;3.13;2.55;;;;;;;3.65;80.06;97681.94;4903123;29;20454;-89
2022/01/31 16:47:54;;;;;;;5.30;2.22;;;;;;;4.80;79.80;97864.06;4937751;29;20031;-89
2022/01/31 16:50:22;;;;;;;4.28;2.53;;;;;;;3.75;79.82;97705.91;4922385;29;20036;-89
2022/01/31 16:52:48;;;;;;;3.17;2.10;;;;;;;3.89;79.62;97718.84;4921638;29;20020;-88
2022/01/31 16:55:14;;;;;;;4.82;2.55;;;;;;;4.60;79.74;97834.59;4937835;29;20553;-89
2022/01/31 16:57:40;;;;;;;5.53;3.10;;;;;;;3.74;79.90;97706.13;4929101;29;20044;-90
2022/01/31 17:00:10;;;;;;;8.30;2.40;;;;;;;4.59;79.88;97849.63;4919027;29;20494;-89
2022/01/31 17:02:37;;;;;;;2.35;2.15;;;;;;;3.77;80.14;97722.31;4918894;29;20383;-90
2022/01/31 17:05:03;;;;;;;4.72;2.60;;;;;;;3.63;79.92;97701.66;4936819;29;20454;-89
2022/01/31 17:07:28;;;;;;;5.57;2.30;;;;;;;4.19;79.95;97793.38;4956805;28;20093;-89
2022/01/31 17:09:55;;;;;;;4.38;2.80;;;;;;;4.86;79.74;97911.50;4940476;29;20031;-89
2022/01/31 17:12:22;;;;;;;5.30;2.20;;;;;;;3.58;79.93;97706.84;4957208;29;20020;-88
2022/01/31 17:14:47;;;;;;;4.40;2.40;;;;;;;3.75;79.59;97740.22;4940439;28;20020;-89
2022/01/31 17:17:13;;;;;;;9.48;2.45;;;;;;;4.56;79.64;97877.31;4904448;29;20119;-89
2022/01/31 17:19:55;;;;;;;3.90;2.50;;;;;;;4.46;79.65;97861.28;4929836;29;20501;-88
2022/01/31 17:22:26;;;;;;;3.65;2.40;;;;;;;4.59;79.19;97872.63;4928012;29;20039;-88
2022/01/31 17:24:52;;;;;;;3.80;2.30;;;;;;;4.49;79.35;97866.09;4938855;29;20026;-89
2022/01/31 17:27:18;;;;;;;4.97;3.40;;;;;;;4.01;79.84;97794.31;4918466;29;20044;-90
2022/01/31 17:29:45;;;;;;;10.88;3.03;;;;;;;3.81;79.18;97756.94;4905898;29;20060;-89
2022/01/31 17:32:20;;;;;;;2.88;2.65;;;;;;;4.36;79.37;97841.78;4931921;29;20143;-89
2022/01/31 17:35:14;;;;;;;6.55;3.42;;;;;;;3.84;80.00;97763.59;4932026;29;20032;-89
2022/01/31 17:38:07;;;;;;;9.50;3.10;;;;;;;4.20;79.79;97824.00;4930261;29;20027;-89
2022/01/31 17:41:02;;;;;;;5.18;3.13;;;;;;;3.72;80.21;97759.13;4914353;29;20035;-89
2022/01/31 17:43:51;;;;;;;8.30;3.25;;;;;;;3.85;79.75;97788.94;4927895;29;20179;-89
2022/01/31 17:47:24;;;;;;;;;;;;;;;;;;;;;
2022/01/31 17:50:18;;;;;;;7.97;3.40;;;;;;;3.98;80.13;97839.66;4860365;29;20026;-89
2022/01/31 17:56:50;;;;;;;6.72;3.00;;;;;;;3.57;80.31;97810.75;4878162;29;20112;-89
2022/01/31 19:01:32;;;;;;;2.38;1.95;;;;;;;4.62;81.01;98174.22;4944158;29;20128;-89
2022/01/31 19:04:06;;;;;;;2.00;1.55;;;;;;;3.45;80.70;97982.19;4935175;29;20043;-89
2022/01/31 19:07:34;;;;;;;4.90;1.98;;;;;;;4.67;80.29;98186.75;4936073;29;20035;-90
2022/01/31 19:11:13;;;;;;;2.30;1.92;;;;;;;4.54;80.85;98171.91;4936095;29;20265;-89
